sensor_id;sensor_type;location;lat;lon;timestamp;temperature;humidity
41220;DHT22;26951;47.338;9.196;2022-11-22T00:00:57;5.20;68.90
41220;DHT22;26951;47.338;9.196;2022-11-22T00:03:40;5.20;68.90
41220;DHT22;26951;47.338;9.196;2022-11-22T00:06:25;5.20;69.20
41220;DHT22;26951;47.338;9.196;2022-11-22T00:09:09;5.20;69.50
41220;DHT22;26951;47.338;9.196;2022-11-22T00:11:53;5.20;69.90
41220;DHT22;26951;47.338;9.196;2022-11-22T00:14:37;5.20;70.30
41220;DHT22;26951;47.338;9.196;2022-11-22T00:17:21;5.20;70.40
41220;DHT22;26951;47.338;9.196;2022-11-22T00:20:07;5.10;70.10
41220;DHT22;26951;47.338;9.196;2022-11-22T00:22:55;5.10;70.30
41220;DHT22;26951;47.338;9.196;2022-11-22T00:25:40;5.10;69.90
41220;DHT22;26951;47.338;9.196;2022-11-22T00:28:24;5.10;71.10
41220;DHT22;26951;47.338;9.196;2022-11-22T00:31:08;5.10;71.70
41220;DHT22;26951;47.338;9.196;2022-11-22T00:33:52;5.10;72.00
41220;DHT22;26951;47.338;9.196;2022-11-22T00:36:36;5.10;71.80
41220;DHT22;26951;47.338;9.196;2022-11-22T00:39:20;5.10;71.80
41220;DHT22;26951;47.338;9.196;2022-11-22T00:42:05;5.10;71.30
41220;DHT22;26951;47.338;9.196;2022-11-22T00:44:49;5.10;71.30
41220;DHT22;26951;47.338;9.196;2022-11-22T00:47:33;5.10;71.30
41220;DHT22;26951;47.338;9.196;2022-11-22T00:50:17;5.10;71.30
41220;DHT22;26951;47.338;9.196;2022-11-22T00:53:01;5.10;71.30
41220;DHT22;26951;47.338;9.196;2022-11-22T00:55:45;5.10;71.30
41220;DHT22;26951;47.338;9.196;2022-11-22T00:58:29;5.10;71.30
41220;DHT22;26951;47.338;9.196;2022-11-22T01:01:13;5.10;71.30
41220;DHT22;26951;47.338;9.196;2022-11-22T01:03:57;5.10;71.30
41220;DHT22;26951;47.338;9.196;2022-11-22T01:06:41;5.10;71.50
41220;DHT22;26951;47.338;9.196;2022-11-22T01:09:25;5.10;72.10
41220;DHT22;26951;47.338;9.196;2022-11-22T01:12:09;5.10;72.70
41220;DHT22;26951;47.338;9.196;2022-11-22T01:14:53;5.10;73.10
41220;DHT22;26951;47.338;9.196;2022-11-22T01:17:38;5.10;73.40
41220;DHT22;26951;47.338;9.196;2022-11-22T01:20:22;5.10;73.60
41220;DHT22;26951;47.338;9.196;2022-11-22T01:23:06;5.10;73.70
41220;DHT22;26951;47.338;9.196;2022-11-22T01:25:50;5.10;73.60
41220;DHT22;26951;47.338;9.196;2022-11-22T01:28:35;5.10;73.50
41220;DHT22;26951;47.338;9.196;2022-11-22T01:31:19;5.10;73.50
41220;DHT22;26951;47.338;9.196;2022-11-22T01:34:04;5.20;73.80
41220;DHT22;26951;47.338;9.196;2022-11-22T01:36:49;5.20;74.10
41220;DHT22;26951;47.338;9.196;2022-11-22T01:39:32;5.20;74.00
41220;DHT22;26951;47.338;9.196;2022-11-22T01:42:17;5.20;74.20
41220;DHT22;26951;47.338;9.196;2022-11-22T01:45:41;5.20;74.30
41220;DHT22;26951;47.338;9.196;2022-11-22T01:54:15;5.30;74.40
41220;DHT22;26951;47.338;9.196;2022-11-22T01:57:05;5.20;75.00
41220;DHT22;26951;47.338;9.196;2022-11-22T01:59:55;5.30;75.20
41220;DHT22;26951;47.338;9.196;2022-11-22T02:02:41;5.30;75.40
41220;DHT22;26951;47.338;9.196;2022-11-22T02:05:29;5.30;75.10
41220;DHT22;26951;47.338;9.196;2022-11-22T02:08:39;5.30;75.00
41220;DHT22;26951;47.338;9.196;2022-11-22T02:11:26;5.30;75.10
41220;DHT22;26951;47.338;9.196;2022-11-22T02:14:11;5.30;75.20
41220;DHT22;26951;47.338;9.196;2022-11-22T02:16:56;5.30;75.70
41220;DHT22;26951;47.338;9.196;2022-11-22T02:19:49;5.30;76.10
41220;DHT22;26951;47.338;9.196;2022-11-22T02:22:54;5.30;76.60
41220;DHT22;26951;47.338;9.196;2022-11-22T02:28:27;5.30;76.30
41220;DHT22;26951;47.338;9.196;2022-11-22T02:31:36;5.30;75.90
41220;DHT22;26951;47.338;9.196;2022-11-22T02:34:21;5.30;75.50
41220;DHT22;26951;47.338;9.196;2022-11-22T02:37:05;5.30;76.10
41220;DHT22;26951;47.338;9.196;2022-11-22T02:39:58;5.30;76.20
41220;DHT22;26951;47.338;9.196;2022-11-22T02:42:53;5.30;76.10
41220;DHT22;26951;47.338;9.196;2022-11-22T02:45:38;5.30;75.30
41220;DHT22;26951;47.338;9.196;2022-11-22T02:48:22;5.30;75.60
41220;DHT22;26951;47.338;9.196;2022-11-22T02:51:06;5.30;76.10
41220;DHT22;26951;47.338;9.196;2022-11-22T02:53:51;5.30;76.20
41220;DHT22;26951;47.338;9.196;2022-11-22T02:56:36;5.30;76.20
41220;DHT22;26951;47.338;9.196;2022-11-22T02:59:20;5.30;76.20
41220;DHT22;26951;47.338;9.196;2022-11-22T03:02:04;5.30;76.50
41220;DHT22;26951;47.338;9.196;2022-11-22T03:04:48;5.30;76.00
41220;DHT22;26951;47.338;9.196;2022-11-22T03:07:32;5.30;76.10
41220;DHT22;26951;47.338;9.196;2022-11-22T03:10:16;5.30;76.30
41220;DHT22;26951;47.338;9.196;2022-11-22T03:13:01;5.20;76.10
41220;DHT22;26951;47.338;9.196;2022-11-22T03:15:46;5.20;76.00
41220;DHT22;26951;47.338;9.196;2022-11-22T03:18:33;5.20;76.10
41220;DHT22;26951;47.338;9.196;2022-11-22T03:21:17;5.20;76.40
41220;DHT22;26951;47.338;9.196;2022-11-22T03:24:01;5.20;76.30
41220;DHT22;26951;47.338;9.196;2022-11-22T03:26:47;5.20;75.00
41220;DHT22;26951;47.338;9.196;2022-11-22T03:29:32;5.20;75.40
41220;DHT22;26951;47.338;9.196;2022-11-22T03:32:16;5.20;75.80
41220;DHT22;26951;47.338;9.196;2022-11-22T03:35:00;5.10;75.40
41220;DHT22;26951;47.338;9.196;2022-11-22T03:37:44;5.10;75.00
41220;DHT22;26951;47.338;9.196;2022-11-22T03:40:28;5.00;74.70
41220;DHT22;26951;47.338;9.196;2022-11-22T03:43:12;5.00;75.20
41220;DHT22;26951;47.338;9.196;2022-11-22T03:45:57;5.00;74.90
41220;DHT22;26951;47.338;9.196;2022-11-22T03:48:41;5.00;75.20
41220;DHT22;26951;47.338;9.196;2022-11-22T03:51:26;4.90;75.00
41220;DHT22;26951;47.338;9.196;2022-11-22T03:54:10;4.90;74.90
41220;DHT22;26951;47.338;9.196;2022-11-22T03:56:54;4.90;74.70
41220;DHT22;26951;47.338;9.196;2022-11-22T03:59:38;4.90;74.70
41220;DHT22;26951;47.338;9.196;2022-11-22T04:02:22;4.80;75.40
41220;DHT22;26951;47.338;9.196;2022-11-22T04:05:07;4.90;75.20
41220;DHT22;26951;47.338;9.196;2022-11-22T04:07:51;4.90;74.80
41220;DHT22;26951;47.338;9.196;2022-11-22T04:10:41;4.90;75.10
41220;DHT22;26951;47.338;9.196;2022-11-22T04:13:25;4.90;75.00
41220;DHT22;26951;47.338;9.196;2022-11-22T04:16:29;4.90;74.90
41220;DHT22;26951;47.338;9.196;2022-11-22T04:19:13;4.90;75.00
41220;DHT22;26951;47.338;9.196;2022-11-22T04:21:57;4.90;74.60
41220;DHT22;26951;47.338;9.196;2022-11-22T04:24:42;4.90;74.60
41220;DHT22;26951;47.338;9.196;2022-11-22T04:27:46;4.90;75.00
41220;DHT22;26951;47.338;9.196;2022-11-22T04:30:30;4.90;74.70
41220;DHT22;26951;47.338;9.196;2022-11-22T04:33:34;4.90;74.90
41220;DHT22;26951;47.338;9.196;2022-11-22T04:36:19;4.90;75.00
41220;DHT22;26951;47.338;9.196;2022-11-22T04:39:03;4.90;75.50
41220;DHT22;26951;47.338;9.196;2022-11-22T04:41:47;4.90;75.20
41220;DHT22;26951;47.338;9.196;2022-11-22T04:44:51;4.90;75.70
41220;DHT22;26951;47.338;9.196;2022-11-22T04:47:35;4.90;75.30
41220;DHT22;26951;47.338;9.196;2022-11-22T04:50:39;4.90;75.20
41220;DHT22;26951;47.338;9.196;2022-11-22T04:53:43;4.90;75.00
41220;DHT22;26951;47.338;9.196;2022-11-22T04:56:27;4.90;74.20
41220;DHT22;26951;47.338;9.196;2022-11-22T04:59:12;4.80;74.10
41220;DHT22;26951;47.338;9.196;2022-11-22T05:01:56;4.80;74.20
41220;DHT22;26951;47.338;9.196;2022-11-22T05:04:40;4.80;74.40
41220;DHT22;26951;47.338;9.196;2022-11-22T05:07:24;4.80;74.50
41220;DHT22;26951;47.338;9.196;2022-11-22T05:10:09;4.80;74.70
41220;DHT22;26951;47.338;9.196;2022-11-22T05:12:54;4.80;74.30
41220;DHT22;26951;47.338;9.196;2022-11-22T05:15:38;4.80;74.30
41220;DHT22;26951;47.338;9.196;2022-11-22T05:18:23;4.80;74.10
41220;DHT22;26951;47.338;9.196;2022-11-22T05:21:10;4.80;74.30
41220;DHT22;26951;47.338;9.196;2022-11-22T05:23:55;4.90;74.40
41220;DHT22;26951;47.338;9.196;2022-11-22T05:26:39;4.80;74.70
41220;DHT22;26951;47.338;9.196;2022-11-22T05:29:24;4.80;74.20
41220;DHT22;26951;47.338;9.196;2022-11-22T05:32:08;4.80;74.50
41220;DHT22;26951;47.338;9.196;2022-11-22T05:34:52;4.80;74.50
41220;DHT22;26951;47.338;9.196;2022-11-22T05:37:37;4.80;74.00
41220;DHT22;26951;47.338;9.196;2022-11-22T05:40:21;4.80;73.60
41220;DHT22;26951;47.338;9.196;2022-11-22T05:43:05;4.70;73.00
41220;DHT22;26951;47.338;9.196;2022-11-22T05:45:49;4.70;73.60
41220;DHT22;26951;47.338;9.196;2022-11-22T05:48:34;4.70;73.70
41220;DHT22;26951;47.338;9.196;2022-11-22T05:51:20;4.60;73.70
41220;DHT22;26951;47.338;9.196;2022-11-22T05:54:05;4.70;73.80
41220;DHT22;26951;47.338;9.196;2022-11-22T05:56:49;4.60;73.60
41220;DHT22;26951;47.338;9.196;2022-11-22T05:59:34;4.60;73.20
41220;DHT22;26951;47.338;9.196;2022-11-22T06:02:18;4.60;73.20
41220;DHT22;26951;47.338;9.196;2022-11-22T06:05:02;4.50;73.00
41220;DHT22;26951;47.338;9.196;2022-11-22T06:07:46;4.50;73.50
41220;DHT22;26951;47.338;9.196;2022-11-22T06:10:30;4.50;73.70
41220;DHT22;26951;47.338;9.196;2022-11-22T06:13:17;4.50;73.50
41220;DHT22;26951;47.338;9.196;2022-11-22T06:16:02;4.40;72.60
41220;DHT22;26951;47.338;9.196;2022-11-22T06:18:47;4.40;72.70
41220;DHT22;26951;47.338;9.196;2022-11-22T06:21:31;4.30;73.30
41220;DHT22;26951;47.338;9.196;2022-11-22T06:24:15;4.30;73.30
41220;DHT22;26951;47.338;9.196;2022-11-22T06:27:00;4.30;74.00
41220;DHT22;26951;47.338;9.196;2022-11-22T06:29:44;4.20;73.90
41220;DHT22;26951;47.338;9.196;2022-11-22T06:32:31;4.20;73.70
41220;DHT22;26951;47.338;9.196;2022-11-22T06:35:15;4.20;73.50
41220;DHT22;26951;47.338;9.196;2022-11-22T06:38:00;4.10;74.10
41220;DHT22;26951;47.338;9.196;2022-11-22T06:40:44;4.10;74.50
41220;DHT22;26951;47.338;9.196;2022-11-22T06:43:29;4.10;74.80
41220;DHT22;26951;47.338;9.196;2022-11-22T06:46:14;4.10;75.00
41220;DHT22;26951;47.338;9.196;2022-11-22T06:48:59;4.10;75.40
41220;DHT22;26951;47.338;9.196;2022-11-22T06:51:43;4.10;75.70
41220;DHT22;26951;47.338;9.196;2022-11-22T06:54:27;4.10;75.20
41220;DHT22;26951;47.338;9.196;2022-11-22T06:57:14;4.10;75.40
41220;DHT22;26951;47.338;9.196;2022-11-22T06:59:58;4.10;75.30
41220;DHT22;26951;47.338;9.196;2022-11-22T07:02:42;4.20;75.10
41220;DHT22;26951;47.338;9.196;2022-11-22T07:05:27;4.10;74.50
41220;DHT22;26951;47.338;9.196;2022-11-22T07:08:11;4.20;74.60
41220;DHT22;26951;47.338;9.196;2022-11-22T07:11:10;4.20;74.80
41220;DHT22;26951;47.338;9.196;2022-11-22T07:13:55;4.20;73.70
41220;DHT22;26951;47.338;9.196;2022-11-22T07:16:40;4.20;74.50
41220;DHT22;26951;47.338;9.196;2022-11-22T07:19:25;4.10;74.00
41220;DHT22;26951;47.338;9.196;2022-11-22T07:22:09;4.10;74.00
41220;DHT22;26951;47.338;9.196;2022-11-22T07:24:53;4.00;74.20
41220;DHT22;26951;47.338;9.196;2022-11-22T07:27:37;4.00;73.80
41220;DHT22;26951;47.338;9.196;2022-11-22T07:30:21;4.00;73.80
41220;DHT22;26951;47.338;9.196;2022-11-22T07:33:05;3.90;74.00
41220;DHT22;26951;47.338;9.196;2022-11-22T07:35:50;4.00;74.20
41220;DHT22;26951;47.338;9.196;2022-11-22T07:38:34;4.00;73.60
41220;DHT22;26951;47.338;9.196;2022-11-22T07:41:18;3.90;73.40
41220;DHT22;26951;47.338;9.196;2022-11-22T07:44:02;3.90;72.50
41220;DHT22;26951;47.338;9.196;2022-11-22T07:46:47;3.80;71.50
41220;DHT22;26951;47.338;9.196;2022-11-22T07:49:32;3.70;72.10
41220;DHT22;26951;47.338;9.196;2022-11-22T07:52:17;3.70;72.10
41220;DHT22;26951;47.338;9.196;2022-11-22T07:55:01;3.70;72.10
41220;DHT22;26951;47.338;9.196;2022-11-22T07:57:45;3.60;71.60
41220;DHT22;26951;47.338;9.196;2022-11-22T08:00:29;3.60;72.30
41220;DHT22;26951;47.338;9.196;2022-11-22T08:03:13;3.60;72.90
41220;DHT22;26951;47.338;9.196;2022-11-22T08:05:59;3.60;73.20
41220;DHT22;26951;47.338;9.196;2022-11-22T08:08:43;3.60;73.30
41220;DHT22;26951;47.338;9.196;2022-11-22T08:11:27;3.60;73.70
41220;DHT22;26951;47.338;9.196;2022-11-22T08:14:11;3.50;73.80
41220;DHT22;26951;47.338;9.196;2022-11-22T08:16:56;3.60;74.10
41220;DHT22;26951;47.338;9.196;2022-11-22T08:19:40;3.60;73.90
41220;DHT22;26951;47.338;9.196;2022-11-22T08:22:24;3.60;73.70
41220;DHT22;26951;47.338;9.196;2022-11-22T08:25:08;3.70;73.40
41220;DHT22;26951;47.338;9.196;2022-11-22T08:27:55;3.70;73.30
41220;DHT22;26951;47.338;9.196;2022-11-22T08:30:39;3.70;72.90
41220;DHT22;26951;47.338;9.196;2022-11-22T08:33:23;3.80;72.70
41220;DHT22;26951;47.338;9.196;2022-11-22T08:36:08;3.80;72.40
41220;DHT22;26951;47.338;9.196;2022-11-22T08:38:52;3.80;73.30
41220;DHT22;26951;47.338;9.196;2022-11-22T08:41:36;3.80;73.70
41220;DHT22;26951;47.338;9.196;2022-11-22T08:44:20;3.90;73.80
41220;DHT22;26951;47.338;9.196;2022-11-22T08:47:04;3.90;74.00
41220;DHT22;26951;47.338;9.196;2022-11-22T08:49:48;3.90;73.40
41220;DHT22;26951;47.338;9.196;2022-11-22T08:52:33;3.90;72.60
41220;DHT22;26951;47.338;9.196;2022-11-22T08:55:17;3.90;73.00
41220;DHT22;26951;47.338;9.196;2022-11-22T08:58:01;4.00;73.90
41220;DHT22;26951;47.338;9.196;2022-11-22T09:00:45;4.00;74.10
41220;DHT22;26951;47.338;9.196;2022-11-22T09:03:29;4.10;73.30
41220;DHT22;26951;47.338;9.196;2022-11-22T09:06:16;4.10;73.50
41220;DHT22;26951;47.338;9.196;2022-11-22T09:09:02;4.10;74.40
41220;DHT22;26951;47.338;9.196;2022-11-22T09:11:46;4.10;74.90
41220;DHT22;26951;47.338;9.196;2022-11-22T09:14:30;4.20;74.90
41220;DHT22;26951;47.338;9.196;2022-11-22T09:17:14;4.20;75.10
41220;DHT22;26951;47.338;9.196;2022-11-22T09:19:59;4.20;75.10
41220;DHT22;26951;47.338;9.196;2022-11-22T09:22:43;4.20;74.00
41220;DHT22;26951;47.338;9.196;2022-11-22T09:25:27;4.20;74.50
41220;DHT22;26951;47.338;9.196;2022-11-22T09:28:11;4.20;74.70
41220;DHT22;26951;47.338;9.196;2022-11-22T09:31:22;4.20;74.90
41220;DHT22;26951;47.338;9.196;2022-11-22T09:34:07;4.30;75.10
41220;DHT22;26951;47.338;9.196;2022-11-22T09:36:51;4.30;75.20
41220;DHT22;26951;47.338;9.196;2022-11-22T09:39:35;4.40;75.40
41220;DHT22;26951;47.338;9.196;2022-11-22T09:42:26;4.40;75.50
41220;DHT22;26951;47.338;9.196;2022-11-22T09:51:19;4.40;75.50
41220;DHT22;26951;47.338;9.196;2022-11-22T09:54:07;4.40;76.30
41220;DHT22;26951;47.338;9.196;2022-11-22T09:56:53;4.40;76.30
41220;DHT22;26951;47.338;9.196;2022-11-22T09:59:44;4.40;76.60
41220;DHT22;26951;47.338;9.196;2022-11-22T10:02:36;4.50;76.50
41220;DHT22;26951;47.338;9.196;2022-11-22T10:05:29;4.50;75.10
41220;DHT22;26951;47.338;9.196;2022-11-22T10:08:40;4.50;74.80
41220;DHT22;26951;47.338;9.196;2022-11-22T10:11:45;4.50;75.10
41220;DHT22;26951;47.338;9.196;2022-11-22T10:15:07;4.50;74.80
41220;DHT22;26951;47.338;9.196;2022-11-22T10:17:58;4.50;74.50
41220;DHT22;26951;47.338;9.196;2022-11-22T10:20:44;4.60;75.70
41220;DHT22;26951;47.338;9.196;2022-11-22T10:23:28;4.70;76.40
41220;DHT22;26951;47.338;9.196;2022-11-22T10:26:21;4.70;76.40
41220;DHT22;26951;47.338;9.196;2022-11-22T10:29:28;4.70;76.10
41220;DHT22;26951;47.338;9.196;2022-11-22T10:32:27;4.80;76.40
41220;DHT22;26951;47.338;9.196;2022-11-22T10:35:27;4.90;76.30
41220;DHT22;26951;47.338;9.196;2022-11-22T10:45:03;5.10;76.90
41220;DHT22;26951;47.338;9.196;2022-11-22T10:51:09;5.20;77.10
41220;DHT22;26951;47.338;9.196;2022-11-22T10:54:08;5.30;76.80
41220;DHT22;26951;47.338;9.196;2022-11-22T10:57:13;5.30;73.30
41220;DHT22;26951;47.338;9.196;2022-11-22T11:03:11;5.40;73.10
41220;DHT22;26951;47.338;9.196;2022-11-22T11:08:58;5.40;71.20
41220;DHT22;26951;47.338;9.196;2022-11-22T11:11:45;5.40;72.70
41220;DHT22;26951;47.338;9.196;2022-11-22T11:14:43;5.40;71.00
41220;DHT22;26951;47.338;9.196;2022-11-22T11:17:32;5.50;71.60
41220;DHT22;26951;47.338;9.196;2022-11-22T11:20:32;5.50;68.80
41220;DHT22;26951;47.338;9.196;2022-11-22T11:23:17;5.40;69.20
41220;DHT22;26951;47.338;9.196;2022-11-22T11:26:27;5.40;69.80
41220;DHT22;26951;47.338;9.196;2022-11-22T11:32:06;5.30;68.50
41220;DHT22;26951;47.338;9.196;2022-11-22T11:34:55;5.30;69.30
41220;DHT22;26951;47.338;9.196;2022-11-22T11:37:39;5.30;70.20
41220;DHT22;26951;47.338;9.196;2022-11-22T11:40:28;5.40;69.60
41220;DHT22;26951;47.338;9.196;2022-11-22T11:43:18;5.30;69.20
41220;DHT22;26951;47.338;9.196;2022-11-22T11:46:22;5.40;69.20
41220;DHT22;26951;47.338;9.196;2022-11-22T11:49:17;5.30;67.80
41220;DHT22;26951;47.338;9.196;2022-11-22T11:52:09;5.40;67.60
41220;DHT22;26951;47.338;9.196;2022-11-22T11:54:58;5.40;67.20
41220;DHT22;26951;47.338;9.196;2022-11-22T11:57:43;5.30;66.60
41220;DHT22;26951;47.338;9.196;2022-11-22T12:00:35;5.30;67.30
41220;DHT22;26951;47.338;9.196;2022-11-22T12:03:21;5.30;67.50
41220;DHT22;26951;47.338;9.196;2022-11-22T12:06:12;5.30;66.60
41220;DHT22;26951;47.338;9.196;2022-11-22T12:08:58;5.30;66.80
41220;DHT22;26951;47.338;9.196;2022-11-22T12:11:46;5.40;67.80
41220;DHT22;26951;47.338;9.196;2022-11-22T12:14:32;5.40;65.80
41220;DHT22;26951;47.338;9.196;2022-11-22T12:17:25;5.40;66.40
41220;DHT22;26951;47.338;9.196;2022-11-22T12:20:53;5.40;67.40
41220;DHT22;26951;47.338;9.196;2022-11-22T12:26:36;5.50;66.30
41220;DHT22;26951;47.338;9.196;2022-11-22T12:29:21;5.50;66.00
41220;DHT22;26951;47.338;9.196;2022-11-22T12:32:28;5.50;67.00
41220;DHT22;26951;47.338;9.196;2022-11-22T12:35:17;5.60;68.00
41220;DHT22;26951;47.338;9.196;2022-11-22T12:38:10;5.70;66.60
41220;DHT22;26951;47.338;9.196;2022-11-22T12:40:58;5.70;66.40
41220;DHT22;26951;47.338;9.196;2022-11-22T12:44:17;5.70;66.00
41220;DHT22;26951;47.338;9.196;2022-11-22T12:47:11;5.70;66.10
41220;DHT22;26951;47.338;9.196;2022-11-22T12:50:05;5.70;65.90
41220;DHT22;26951;47.338;9.196;2022-11-22T12:52:57;5.70;64.90
41220;DHT22;26951;47.338;9.196;2022-11-22T12:56:09;5.70;65.60
41220;DHT22;26951;47.338;9.196;2022-11-22T12:59:23;5.70;66.00
41220;DHT22;26951;47.338;9.196;2022-11-22T13:05:24;5.70;63.80
41220;DHT22;26951;47.338;9.196;2022-11-22T13:11:15;5.70;64.40
41220;DHT22;26951;47.338;9.196;2022-11-22T13:14:11;5.70;63.90
41220;DHT22;26951;47.338;9.196;2022-11-22T13:16:57;5.70;62.80
41220;DHT22;26951;47.338;9.196;2022-11-22T13:29:18;5.60;63.60
41220;DHT22;26951;47.338;9.196;2022-11-22T13:38:11;5.50;62.80
41220;DHT22;26951;47.338;9.196;2022-11-22T13:41:20;5.60;62.90
41220;DHT22;26951;47.338;9.196;2022-11-22T13:49:55;5.60;63.50
41220;DHT22;26951;47.338;9.196;2022-11-22T13:52:50;5.50;62.90
41220;DHT22;26951;47.338;9.196;2022-11-22T13:55:35;5.50;63.20
41220;DHT22;26951;47.338;9.196;2022-11-22T14:01:31;5.40;62.20
41220;DHT22;26951;47.338;9.196;2022-11-22T14:04:37;5.40;62.80
41220;DHT22;26951;47.338;9.196;2022-11-22T14:07:35;5.40;63.20
41220;DHT22;26951;47.338;9.196;2022-11-22T14:16:57;5.40;63.60
41220;DHT22;26951;47.338;9.196;2022-11-22T14:26:32;5.40;64.50
41220;DHT22;26951;47.338;9.196;2022-11-22T14:32:47;5.40;63.90
41220;DHT22;26951;47.338;9.196;2022-11-22T14:35:35;5.40;63.50
41220;DHT22;26951;47.338;9.196;2022-11-22T14:38:26;5.40;63.80
41220;DHT22;26951;47.338;9.196;2022-11-22T14:44:17;5.40;64.00
41220;DHT22;26951;47.338;9.196;2022-11-22T14:47:09;5.40;63.30
41220;DHT22;26951;47.338;9.196;2022-11-22T14:49:57;5.40;63.10
41220;DHT22;26951;47.338;9.196;2022-11-22T14:52:43;5.30;63.70
41220;DHT22;26951;47.338;9.196;2022-11-22T14:55:33;5.30;64.20
41220;DHT22;26951;47.338;9.196;2022-11-22T14:58:28;5.30;64.50
41220;DHT22;26951;47.338;9.196;2022-11-22T15:04:58;5.30;63.30
41220;DHT22;26951;47.338;9.196;2022-11-22T15:07:53;5.30;63.20
41220;DHT22;26951;47.338;9.196;2022-11-22T15:14:01;5.20;63.90
41220;DHT22;26951;47.338;9.196;2022-11-22T15:16:52;5.20;64.50
41220;DHT22;26951;47.338;9.196;2022-11-22T15:19:39;5.10;65.50
41220;DHT22;26951;47.338;9.196;2022-11-22T15:22:26;5.20;65.60
41220;DHT22;26951;47.338;9.196;2022-11-22T15:25:16;5.10;65.00
41220;DHT22;26951;47.338;9.196;2022-11-22T15:28:00;5.10;65.20
41220;DHT22;26951;47.338;9.196;2022-11-22T15:30:46;5.10;65.40
41220;DHT22;26951;47.338;9.196;2022-11-22T15:33:32;5.10;65.50
41220;DHT22;26951;47.338;9.196;2022-11-22T15:39:04;5.10;66.40
41220;DHT22;26951;47.338;9.196;2022-11-22T15:41:49;5.10;66.40
41220;DHT22;26951;47.338;9.196;2022-11-22T15:44:33;5.10;66.80
41220;DHT22;26951;47.338;9.196;2022-11-22T15:47:19;5.00;66.90
41220;DHT22;26951;47.338;9.196;2022-11-22T15:50:17;5.00;66.70
41220;DHT22;26951;47.338;9.196;2022-11-22T15:53:18;5.00;67.10
41220;DHT22;26951;47.338;9.196;2022-11-22T15:56:14;5.00;67.20
41220;DHT22;26951;47.338;9.196;2022-11-22T15:59:00;5.00;67.00
41220;DHT22;26951;47.338;9.196;2022-11-22T16:01:44;4.90;66.80
41220;DHT22;26951;47.338;9.196;2022-11-22T16:04:33;4.90;67.70
41220;DHT22;26951;47.338;9.196;2022-11-22T16:07:46;4.90;67.10
41220;DHT22;26951;47.338;9.196;2022-11-22T16:10:36;4.90;67.50
41220;DHT22;26951;47.338;9.196;2022-11-22T16:13:25;4.80;67.70
41220;DHT22;26951;47.338;9.196;2022-11-22T16:19:20;4.80;67.90
41220;DHT22;26951;47.338;9.196;2022-11-22T16:22:23;4.80;68.00
41220;DHT22;26951;47.338;9.196;2022-11-22T16:25:29;4.70;68.00
41220;DHT22;26951;47.338;9.196;2022-11-22T16:28:32;4.80;68.00
41220;DHT22;26951;47.338;9.196;2022-11-22T16:34:11;4.80;68.80
41220;DHT22;26951;47.338;9.196;2022-11-22T16:36:56;4.70;68.70
41220;DHT22;26951;47.338;9.196;2022-11-22T16:39:41;4.80;68.90
41220;DHT22;26951;47.338;9.196;2022-11-22T16:42:25;4.80;69.10
41220;DHT22;26951;47.338;9.196;2022-11-22T16:45:17;4.70;68.50
41220;DHT22;26951;47.338;9.196;2022-11-22T16:48:13;4.70;68.40
41220;DHT22;26951;47.338;9.196;2022-11-22T16:51:00;4.70;68.30
41220;DHT22;26951;47.338;9.196;2022-11-22T16:53:47;4.70;68.40
41220;DHT22;26951;47.338;9.196;2022-11-22T16:56:32;4.70;68.50
41220;DHT22;26951;47.338;9.196;2022-11-22T16:59:16;4.60;68.60
41220;DHT22;26951;47.338;9.196;2022-11-22T17:02:00;4.60;68.20
41220;DHT22;26951;47.338;9.196;2022-11-22T17:04:44;4.60;68.20
41220;DHT22;26951;47.338;9.196;2022-11-22T17:07:29;4.60;68.30
41220;DHT22;26951;47.338;9.196;2022-11-22T17:10:13;4.60;68.90
41220;DHT22;26951;47.338;9.196;2022-11-22T17:12:57;4.60;68.10
41220;DHT22;26951;47.338;9.196;2022-11-22T17:15:42;4.60;68.30
41220;DHT22;26951;47.338;9.196;2022-11-22T17:18:27;4.50;68.70
41220;DHT22;26951;47.338;9.196;2022-11-22T17:21:28;4.50;69.30
41220;DHT22;26951;47.338;9.196;2022-11-22T17:24:17;4.50;69.20
41220;DHT22;26951;47.338;9.196;2022-11-22T17:27:02;4.50;68.90
41220;DHT22;26951;47.338;9.196;2022-11-22T17:29:46;4.50;69.60
41220;DHT22;26951;47.338;9.196;2022-11-22T17:32:30;4.50;69.70
41220;DHT22;26951;47.338;9.196;2022-11-22T17:35:14;4.50;69.60
41220;DHT22;26951;47.338;9.196;2022-11-22T17:37:59;4.50;68.90
41220;DHT22;26951;47.338;9.196;2022-11-22T17:40:43;4.50;69.40
41220;DHT22;26951;47.338;9.196;2022-11-22T17:43:30;4.40;68.90
41220;DHT22;26951;47.338;9.196;2022-11-22T17:46:14;4.40;69.10
41220;DHT22;26951;47.338;9.196;2022-11-22T17:49:00;4.50;68.90
41220;DHT22;26951;47.338;9.196;2022-11-22T17:51:45;4.40;68.50
41220;DHT22;26951;47.338;9.196;2022-11-22T17:54:29;4.40;68.60
41220;DHT22;26951;47.338;9.196;2022-11-22T17:57:13;4.40;68.40
41220;DHT22;26951;47.338;9.196;2022-11-22T17:59:57;4.40;68.30
41220;DHT22;26951;47.338;9.196;2022-11-22T18:02:41;4.40;68.20
41220;DHT22;26951;47.338;9.196;2022-11-22T18:05:25;4.40;68.40
41220;DHT22;26951;47.338;9.196;2022-11-22T18:08:10;4.30;68.00
41220;DHT22;26951;47.338;9.196;2022-11-22T18:10:55;4.30;68.20
41220;DHT22;26951;47.338;9.196;2022-11-22T18:13:40;4.30;68.30
41220;DHT22;26951;47.338;9.196;2022-11-22T18:18:59;4.40;67.70
41220;DHT22;26951;47.338;9.196;2022-11-22T18:21:44;4.30;67.80
41220;DHT22;26951;47.338;9.196;2022-11-22T18:24:28;4.30;67.50
41220;DHT22;26951;47.338;9.196;2022-11-22T18:27:12;4.30;68.00
41220;DHT22;26951;47.338;9.196;2022-11-22T18:29:56;4.30;68.40
41220;DHT22;26951;47.338;9.196;2022-11-22T18:32:40;4.30;68.30
41220;DHT22;26951;47.338;9.196;2022-11-22T18:35:25;4.30;67.90
41220;DHT22;26951;47.338;9.196;2022-11-22T18:38:10;4.30;68.20
41220;DHT22;26951;47.338;9.196;2022-11-22T18:40:59;4.30;67.90
41220;DHT22;26951;47.338;9.196;2022-11-22T18:43:44;4.30;67.80
41220;DHT22;26951;47.338;9.196;2022-11-22T18:46:28;4.30;68.20
41220;DHT22;26951;47.338;9.196;2022-11-22T18:49:12;4.20;68.10
41220;DHT22;26951;47.338;9.196;2022-11-22T18:51:56;4.30;67.90
41220;DHT22;26951;47.338;9.196;2022-11-22T18:54:40;4.30;67.80
41220;DHT22;26951;47.338;9.196;2022-11-22T18:57:24;4.30;67.70
41220;DHT22;26951;47.338;9.196;2022-11-22T19:00:10;4.30;67.60
41220;DHT22;26951;47.338;9.196;2022-11-22T19:02:55;4.30;67.50
41220;DHT22;26951;47.338;9.196;2022-11-22T19:05:39;4.30;67.70
41220;DHT22;26951;47.338;9.196;2022-11-22T19:08:23;4.30;67.40
41220;DHT22;26951;47.338;9.196;2022-11-22T19:11:08;4.30;67.80
41220;DHT22;26951;47.338;9.196;2022-11-22T19:13:52;4.20;66.90
41220;DHT22;26951;47.338;9.196;2022-11-22T19:16:37;4.30;67.00
41220;DHT22;26951;47.338;9.196;2022-11-22T19:19:20;4.20;66.90
41220;DHT22;26951;47.338;9.196;2022-11-22T19:22:06;4.20;67.10
41220;DHT22;26951;47.338;9.196;2022-11-22T19:24:51;4.30;67.70
41220;DHT22;26951;47.338;9.196;2022-11-22T19:27:35;4.20;67.00
41220;DHT22;26951;47.338;9.196;2022-11-22T19:30:19;4.30;67.10
41220;DHT22;26951;47.338;9.196;2022-11-22T19:33:03;4.30;67.40
41220;DHT22;26951;47.338;9.196;2022-11-22T19:35:56;4.30;66.80
41220;DHT22;26951;47.338;9.196;2022-11-22T19:38:40;4.30;66.70
41220;DHT22;26951;47.338;9.196;2022-11-22T19:41:25;4.30;66.80